Terminal Aerodrome Forecast
Issued by NWS

Home | Current Version | Previous Version | Text Only | Print | Product List | Glossary On
Versions: 1 2 3 4 5 6 7 8 9 10 11 12 13 14 15
000
FTUS43 KDMX 230520
TAFFOD
TAF
KFOD 230520Z 2306/2406 11007KT P6SM OVC110
     FM231500 15018G26KT P6SM -SHRA OVC060
     FM232000 15022G32KT P6SM BKN060
     FM240300 13018G27KT P6SM -TSRA SCT025CB OVC060=

USA.gov is the U.S. government's official web portal to all federal, state and local government web resources and services.